sensor_id;sensor_type;location;lat;lon;timestamp;P1;durP1;ratioP1;P2;durP2;ratioP2
6517;SDS011;3292;48.944;9.240;2023-08-01T00:00:11;6.97;;;4.10;;
6517;SDS011;3292;48.944;9.240;2023-08-01T00:02:38;5.23;;;3.50;;
6517;SDS011;3292;48.944;9.240;2023-08-01T00:05:07;4.90;;;4.23;;
6517;SDS011;3292;48.944;9.240;2023-08-01T00:07:36;6.03;;;4.20;;
6517;SDS011;3292;48.944;9.240;2023-08-01T00:10:03;6.73;;;4.03;;
6517;SDS011;3292;48.944;9.240;2023-08-01T00:12:30;6.70;;;4.20;;
6517;SDS011;3292;48.944;9.240;2023-08-01T00:14:57;6.33;;;3.50;;
6517;SDS011;3292;48.944;9.240;2023-08-01T00:17:23;5.73;;;3.80;;
6517;SDS011;3292;48.944;9.240;2023-08-01T00:19:50;5.73;;;4.00;;
6517;SDS011;3292;48.944;9.240;2023-08-01T00:22:17;4.97;;;3.73;;
6517;SDS011;3292;48.944;9.240;2023-08-01T00:24:45;5.23;;;4.10;;
6517;SDS011;3292;48.944;9.240;2023-08-01T00:27:13;6.53;;;4.60;;
6517;SDS011;3292;48.944;9.240;2023-08-01T00:29:39;5.43;;;3.90;;
6517;SDS011;3292;48.944;9.240;2023-08-01T00:32:06;6.47;;;4.53;;
6517;SDS011;3292;48.944;9.240;2023-08-01T00:34:33;5.77;;;3.70;;
6517;SDS011;3292;48.944;9.240;2023-08-01T00:37:00;7.00;;;4.10;;
6517;SDS011;3292;48.944;9.240;2023-08-01T00:39:27;4.47;;;4.07;;
6517;SDS011;3292;48.944;9.240;2023-08-01T00:41:55;7.93;;;4.50;;
6517;SDS011;3292;48.944;9.240;2023-08-01T00:44:22;6.37;;;4.37;;
6517;SDS011;3292;48.944;9.240;2023-08-01T00:46:49;5.60;;;4.33;;
6517;SDS011;3292;48.944;9.240;2023-08-01T00:49:16;5.00;;;4.17;;
6517;SDS011;3292;48.944;9.240;2023-08-01T00:51:43;6.53;;;4.63;;
6517;SDS011;3292;48.944;9.240;2023-08-01T00:54:10;8.73;;;4.10;;
6517;SDS011;3292;48.944;9.240;2023-08-01T00:56:37;5.20;;;4.07;;
6517;SDS011;3292;48.944;9.240;2023-08-01T00:59:06;6.27;;;4.13;;
6517;SDS011;3292;48.944;9.240;2023-08-01T01:01:32;5.57;;;4.10;;
6517;SDS011;3292;48.944;9.240;2023-08-01T01:03:59;6.93;;;4.73;;
6517;SDS011;3292;48.944;9.240;2023-08-01T01:06:28;6.40;;;4.60;;
6517;SDS011;3292;48.944;9.240;2023-08-01T01:08:58;5.77;;;4.73;;
6517;SDS011;3292;48.944;9.240;2023-08-01T01:11:25;5.53;;;4.30;;
6517;SDS011;3292;48.944;9.240;2023-08-01T01:13:52;6.47;;;4.43;;
6517;SDS011;3292;48.944;9.240;2023-08-01T01:16:20;6.53;;;4.60;;
6517;SDS011;3292;48.944;9.240;2023-08-01T01:18:47;4.57;;;4.13;;
6517;SDS011;3292;48.944;9.240;2023-08-01T01:21:15;6.97;;;4.40;;
6517;SDS011;3292;48.944;9.240;2023-08-01T01:23:42;6.77;;;4.13;;
6517;SDS011;3292;48.944;9.240;2023-08-01T01:26:09;5.43;;;3.90;;
6517;SDS011;3292;48.944;9.240;2023-08-01T01:28:37;5.00;;;4.13;;
6517;SDS011;3292;48.944;9.240;2023-08-01T01:31:05;6.60;;;4.00;;
6517;SDS011;3292;48.944;9.240;2023-08-01T01:33:32;5.40;;;4.23;;
6517;SDS011;3292;48.944;9.240;2023-08-01T01:36:00;7.27;;;4.40;;
6517;SDS011;3292;48.944;9.240;2023-08-01T01:38:29;5.33;;;4.20;;
6517;SDS011;3292;48.944;9.240;2023-08-01T01:40:55;5.73;;;4.17;;
6517;SDS011;3292;48.944;9.240;2023-08-01T01:43:22;6.70;;;4.43;;
6517;SDS011;3292;48.944;9.240;2023-08-01T01:45:49;5.20;;;4.10;;
6517;SDS011;3292;48.944;9.240;2023-08-01T01:48:16;7.30;;;4.87;;
6517;SDS011;3292;48.944;9.240;2023-08-01T01:50:43;5.10;;;4.60;;
6517;SDS011;3292;48.944;9.240;2023-08-01T01:53:09;5.93;;;4.30;;
6517;SDS011;3292;48.944;9.240;2023-08-01T01:55:38;7.73;;;4.53;;
6517;SDS011;3292;48.944;9.240;2023-08-01T01:58:05;5.53;;;4.30;;
6517;SDS011;3292;48.944;9.240;2023-08-01T02:00:32;6.53;;;4.67;;
6517;SDS011;3292;48.944;9.240;2023-08-01T02:02:59;5.47;;;4.53;;
6517;SDS011;3292;48.944;9.240;2023-08-01T02:05:27;4.73;;;4.10;;
6517;SDS011;3292;48.944;9.240;2023-08-01T02:07:54;6.23;;;4.40;;
6517;SDS011;3292;48.944;9.240;2023-08-01T02:10:21;7.20;;;4.27;;
6517;SDS011;3292;48.944;9.240;2023-08-01T02:12:49;6.47;;;4.10;;
6517;SDS011;3292;48.944;9.240;2023-08-01T02:15:16;8.80;;;4.30;;
6517;SDS011;3292;48.944;9.240;2023-08-01T02:17:43;6.27;;;4.47;;
6517;SDS011;3292;48.944;9.240;2023-08-01T02:20:10;5.00;;;4.50;;
6517;SDS011;3292;48.944;9.240;2023-08-01T02:22:37;7.77;;;4.87;;
6517;SDS011;3292;48.944;9.240;2023-08-01T02:25:04;5.63;;;4.50;;
6517;SDS011;3292;48.944;9.240;2023-08-01T02:27:31;6.90;;;4.67;;
6517;SDS011;3292;48.944;9.240;2023-08-01T02:29:59;5.63;;;4.80;;
6517;SDS011;3292;48.944;9.240;2023-08-01T02:32:26;5.00;;;4.43;;
6517;SDS011;3292;48.944;9.240;2023-08-01T02:34:53;6.23;;;4.43;;
6517;SDS011;3292;48.944;9.240;2023-08-01T02:37:20;4.43;;;4.03;;
6517;SDS011;3292;48.944;9.240;2023-08-01T02:39:47;5.03;;;4.53;;
6517;SDS011;3292;48.944;9.240;2023-08-01T02:42:13;5.93;;;4.87;;
6517;SDS011;3292;48.944;9.240;2023-08-01T02:44:40;5.83;;;4.43;;
6517;SDS011;3292;48.944;9.240;2023-08-01T02:47:08;6.53;;;4.70;;
6517;SDS011;3292;48.944;9.240;2023-08-01T02:49:35;6.50;;;5.20;;
6517;SDS011;3292;48.944;9.240;2023-08-01T02:52:02;7.77;;;4.87;;
6517;SDS011;3292;48.944;9.240;2023-08-01T02:54:29;6.87;;;4.83;;
6517;SDS011;3292;48.944;9.240;2023-08-01T02:56:56;7.03;;;5.10;;
6517;SDS011;3292;48.944;9.240;2023-08-01T02:59:23;5.47;;;4.90;;
6517;SDS011;3292;48.944;9.240;2023-08-01T03:01:50;6.13;;;4.60;;
6517;SDS011;3292;48.944;9.240;2023-08-01T03:04:18;7.03;;;5.33;;
6517;SDS011;3292;48.944;9.240;2023-08-01T03:06:45;8.17;;;5.30;;
6517;SDS011;3292;48.944;9.240;2023-08-01T03:09:11;5.57;;;4.80;;
6517;SDS011;3292;48.944;9.240;2023-08-01T03:11:38;7.10;;;5.47;;
6517;SDS011;3292;48.944;9.240;2023-08-01T03:14:05;5.97;;;4.80;;
6517;SDS011;3292;48.944;9.240;2023-08-01T03:16:32;6.77;;;5.07;;
6517;SDS011;3292;48.944;9.240;2023-08-01T03:18:59;5.43;;;4.53;;
6517;SDS011;3292;48.944;9.240;2023-08-01T03:21:30;6.90;;;4.80;;
6517;SDS011;3292;48.944;9.240;2023-08-01T03:23:58;5.90;;;4.73;;
6517;SDS011;3292;48.944;9.240;2023-08-01T03:26:26;7.00;;;4.83;;
6517;SDS011;3292;48.944;9.240;2023-08-01T03:28:53;5.77;;;4.83;;
6517;SDS011;3292;48.944;9.240;2023-08-01T03:31:20;7.80;;;5.07;;
6517;SDS011;3292;48.944;9.240;2023-08-01T03:33:47;6.80;;;5.23;;
6517;SDS011;3292;48.944;9.240;2023-08-01T03:36:13;6.63;;;5.37;;
6517;SDS011;3292;48.944;9.240;2023-08-01T03:38:42;6.13;;;4.77;;
6517;SDS011;3292;48.944;9.240;2023-08-01T03:41:09;5.10;;;4.60;;
6517;SDS011;3292;48.944;9.240;2023-08-01T03:43:36;6.87;;;4.97;;
6517;SDS011;3292;48.944;9.240;2023-08-01T03:46:03;6.57;;;5.03;;
6517;SDS011;3292;48.944;9.240;2023-08-01T03:48:30;7.33;;;5.47;;
6517;SDS011;3292;48.944;9.240;2023-08-01T03:50:56;5.43;;;4.90;;
6517;SDS011;3292;48.944;9.240;2023-08-01T03:53:23;8.47;;;5.50;;
6517;SDS011;3292;48.944;9.240;2023-08-01T03:55:51;5.30;;;4.80;;
6517;SDS011;3292;48.944;9.240;2023-08-01T03:58:18;15.13;;;5.77;;
6517;SDS011;3292;48.944;9.240;2023-08-01T04:00:45;5.57;;;4.97;;
6517;SDS011;3292;48.944;9.240;2023-08-01T04:03:12;7.10;;;5.10;;
6517;SDS011;3292;48.944;9.240;2023-08-01T04:05:38;6.90;;;5.37;;
6517;SDS011;3292;48.944;9.240;2023-08-01T04:08:06;6.60;;;5.07;;
6517;SDS011;3292;48.944;9.240;2023-08-01T04:10:33;7.20;;;4.57;;
6517;SDS011;3292;48.944;9.240;2023-08-01T04:13:01;6.20;;;5.23;;
6517;SDS011;3292;48.944;9.240;2023-08-01T04:15:28;6.33;;;4.87;;
6517;SDS011;3292;48.944;9.240;2023-08-01T04:17:55;5.77;;;5.27;;
6517;SDS011;3292;48.944;9.240;2023-08-01T04:20:22;6.40;;;4.43;;
6517;SDS011;3292;48.944;9.240;2023-08-01T04:22:48;5.90;;;4.83;;
6517;SDS011;3292;48.944;9.240;2023-08-01T04:25:15;5.00;;;4.47;;
6517;SDS011;3292;48.944;9.240;2023-08-01T04:27:42;6.33;;;4.50;;
6517;SDS011;3292;48.944;9.240;2023-08-01T04:30:11;4.77;;;4.23;;
6517;SDS011;3292;48.944;9.240;2023-08-01T04:32:38;4.37;;;3.87;;
6517;SDS011;3292;48.944;9.240;2023-08-01T04:35:05;4.47;;;3.87;;
6517;SDS011;3292;48.944;9.240;2023-08-01T04:37:32;4.77;;;4.23;;
6517;SDS011;3292;48.944;9.240;2023-08-01T04:39:59;5.30;;;3.87;;
6517;SDS011;3292;48.944;9.240;2023-08-01T04:42:25;5.97;;;4.50;;
6517;SDS011;3292;48.944;9.240;2023-08-01T04:44:52;6.27;;;4.47;;
6517;SDS011;3292;48.944;9.240;2023-08-01T04:47:20;7.83;;;4.23;;
6517;SDS011;3292;48.944;9.240;2023-08-01T04:49:47;5.33;;;4.57;;
6517;SDS011;3292;48.944;9.240;2023-08-01T04:52:14;6.63;;;4.23;;
6517;SDS011;3292;48.944;9.240;2023-08-01T04:54:41;5.13;;;3.87;;
6517;SDS011;3292;48.944;9.240;2023-08-01T04:57:08;4.97;;;3.67;;
6517;SDS011;3292;48.944;9.240;2023-08-01T04:59:34;6.93;;;4.13;;
6517;SDS011;3292;48.944;9.240;2023-08-01T05:02:01;4.70;;;4.13;;
6517;SDS011;3292;48.944;9.240;2023-08-01T05:04:29;8.73;;;6.40;;
6517;SDS011;3292;48.944;9.240;2023-08-01T05:06:56;6.73;;;4.67;;
6517;SDS011;3292;48.944;9.240;2023-08-01T05:09:23;5.90;;;4.43;;
6517;SDS011;3292;48.944;9.240;2023-08-01T05:11:50;6.60;;;4.27;;
6517;SDS011;3292;48.944;9.240;2023-08-01T05:14:16;5.87;;;4.30;;
6517;SDS011;3292;48.944;9.240;2023-08-01T05:16:43;5.97;;;4.70;;
6517;SDS011;3292;48.944;9.240;2023-08-01T05:19:10;5.57;;;4.27;;
6517;SDS011;3292;48.944;9.240;2023-08-01T05:21:38;8.00;;;4.27;;
6517;SDS011;3292;48.944;9.240;2023-08-01T05:24:05;5.87;;;4.57;;
6517;SDS011;3292;48.944;9.240;2023-08-01T05:26:32;5.70;;;5.00;;
6517;SDS011;3292;48.944;9.240;2023-08-01T05:28:58;5.60;;;4.53;;
6517;SDS011;3292;48.944;9.240;2023-08-01T05:31:25;6.50;;;4.90;;
6517;SDS011;3292;48.944;9.240;2023-08-01T05:33:52;6.43;;;4.30;;
6517;SDS011;3292;48.944;9.240;2023-08-01T05:36:19;4.17;;;3.60;;
6517;SDS011;3292;48.944;9.240;2023-08-01T05:38:47;4.33;;;3.57;;
6517;SDS011;3292;48.944;9.240;2023-08-01T05:41:13;4.67;;;3.50;;
6517;SDS011;3292;48.944;9.240;2023-08-01T05:43:40;6.33;;;3.73;;
6517;SDS011;3292;48.944;9.240;2023-08-01T05:46:07;6.60;;;3.70;;
6517;SDS011;3292;48.944;9.240;2023-08-01T05:48:34;3.83;;;3.50;;
6517;SDS011;3292;48.944;9.240;2023-08-01T05:51:00;4.83;;;3.60;;
6517;SDS011;3292;48.944;9.240;2023-08-01T05:53:27;4.10;;;3.53;;
6517;SDS011;3292;48.944;9.240;2023-08-01T05:55:56;4.87;;;3.50;;
6517;SDS011;3292;48.944;9.240;2023-08-01T05:58:23;4.20;;;3.50;;
6517;SDS011;3292;48.944;9.240;2023-08-01T06:00:50;4.27;;;3.47;;
6517;SDS011;3292;48.944;9.240;2023-08-01T06:03:17;4.13;;;3.57;;
6517;SDS011;3292;48.944;9.240;2023-08-01T06:05:43;5.13;;;3.77;;
6517;SDS011;3292;48.944;9.240;2023-08-01T06:08:10;4.13;;;3.30;;
6517;SDS011;3292;48.944;9.240;2023-08-01T06:10:38;4.07;;;3.77;;
6517;SDS011;3292;48.944;9.240;2023-08-01T06:13:08;3.90;;;3.43;;
6517;SDS011;3292;48.944;9.240;2023-08-01T06:15:35;4.77;;;3.30;;
6517;SDS011;3292;48.944;9.240;2023-08-01T06:18:02;3.73;;;3.17;;
6517;SDS011;3292;48.944;9.240;2023-08-01T06:20:29;4.40;;;3.40;;
6517;SDS011;3292;48.944;9.240;2023-08-01T06:22:56;4.33;;;3.93;;
6517;SDS011;3292;48.944;9.240;2023-08-01T06:25:22;5.77;;;3.87;;
6517;SDS011;3292;48.944;9.240;2023-08-01T06:27:49;5.67;;;3.87;;
6517;SDS011;3292;48.944;9.240;2023-08-01T06:30:17;6.03;;;4.00;;
6517;SDS011;3292;48.944;9.240;2023-08-01T06:32:44;8.87;;;4.20;;
6517;SDS011;3292;48.944;9.240;2023-08-01T06:35:11;7.33;;;4.00;;
6517;SDS011;3292;48.944;9.240;2023-08-01T06:37:38;5.40;;;4.10;;
6517;SDS011;3292;48.944;9.240;2023-08-01T06:40:05;5.93;;;4.20;;
6517;SDS011;3292;48.944;9.240;2023-08-01T06:42:33;4.33;;;3.87;;
6517;SDS011;3292;48.944;9.240;2023-08-01T06:44:59;9.23;;;4.77;;
6517;SDS011;3292;48.944;9.240;2023-08-01T06:47:28;4.53;;;4.10;;
6517;SDS011;3292;48.944;9.240;2023-08-01T06:49:54;6.33;;;4.33;;
6517;SDS011;3292;48.944;9.240;2023-08-01T06:52:21;6.00;;;4.63;;
6517;SDS011;3292;48.944;9.240;2023-08-01T06:54:48;5.97;;;4.83;;
6517;SDS011;3292;48.944;9.240;2023-08-01T06:57:15;8.03;;;5.27;;
6517;SDS011;3292;48.944;9.240;2023-08-01T06:59:41;6.23;;;4.57;;
6517;SDS011;3292;48.944;9.240;2023-08-01T07:02:08;5.47;;;4.67;;
6517;SDS011;3292;48.944;9.240;2023-08-01T07:04:37;5.97;;;4.90;;
6517;SDS011;3292;48.944;9.240;2023-08-01T07:07:04;4.87;;;4.37;;
6517;SDS011;3292;48.944;9.240;2023-08-01T07:09:31;6.23;;;5.00;;
6517;SDS011;3292;48.944;9.240;2023-08-01T07:11:57;7.27;;;4.97;;
6517;SDS011;3292;48.944;9.240;2023-08-01T07:14:25;7.23;;;5.40;;
6517;SDS011;3292;48.944;9.240;2023-08-01T07:16:51;10.00;;;5.07;;
6517;SDS011;3292;48.944;9.240;2023-08-01T07:19:18;6.80;;;5.87;;
6517;SDS011;3292;48.944;9.240;2023-08-01T07:21:46;7.07;;;5.23;;
6517;SDS011;3292;48.944;9.240;2023-08-01T07:24:14;6.27;;;4.83;;
6517;SDS011;3292;48.944;9.240;2023-08-01T07:26:41;6.63;;;4.87;;
6517;SDS011;3292;48.944;9.240;2023-08-01T07:29:08;6.33;;;5.00;;
6517;SDS011;3292;48.944;9.240;2023-08-01T07:31:36;6.00;;;5.30;;
6517;SDS011;3292;48.944;9.240;2023-08-01T07:34:03;7.00;;;5.57;;
6517;SDS011;3292;48.944;9.240;2023-08-01T07:36:30;7.10;;;5.17;;
6517;SDS011;3292;48.944;9.240;2023-08-01T07:38:58;7.07;;;5.67;;
6517;SDS011;3292;48.944;9.240;2023-08-01T07:41:25;7.93;;;5.33;;
6517;SDS011;3292;48.944;9.240;2023-08-01T07:43:52;6.80;;;5.43;;
6517;SDS011;3292;48.944;9.240;2023-08-01T07:46:18;8.00;;;5.43;;
6517;SDS011;3292;48.944;9.240;2023-08-01T07:48:44;6.20;;;5.23;;
6517;SDS011;3292;48.944;9.240;2023-08-01T07:51:11;7.20;;;4.93;;
6517;SDS011;3292;48.944;9.240;2023-08-01T07:53:38;5.13;;;4.63;;
6517;SDS011;3292;48.944;9.240;2023-08-01T07:56:06;7.30;;;5.37;;
6517;SDS011;3292;48.944;9.240;2023-08-01T07:58:33;6.77;;;5.80;;
6517;SDS011;3292;48.944;9.240;2023-08-01T08:01:02;5.90;;;5.30;;
6517;SDS011;3292;48.944;9.240;2023-08-01T08:03:29;7.10;;;5.07;;
6517;SDS011;3292;48.944;9.240;2023-08-01T08:05:56;6.57;;;5.10;;
6517;SDS011;3292;48.944;9.240;2023-08-01T08:08:24;6.63;;;5.00;;
6517;SDS011;3292;48.944;9.240;2023-08-01T08:10:51;5.93;;;4.93;;
6517;SDS011;3292;48.944;9.240;2023-08-01T08:13:20;5.50;;;4.57;;
6517;SDS011;3292;48.944;9.240;2023-08-01T08:15:46;4.87;;;4.07;;
6517;SDS011;3292;48.944;9.240;2023-08-01T08:18:13;4.73;;;3.77;;
6517;SDS011;3292;48.944;9.240;2023-08-01T08:20:41;4.67;;;4.17;;
6517;SDS011;3292;48.944;9.240;2023-08-01T08:23:09;4.53;;;3.67;;
6517;SDS011;3292;48.944;9.240;2023-08-01T08:25:36;4.60;;;3.70;;
6517;SDS011;3292;48.944;9.240;2023-08-01T08:28:03;4.93;;;3.90;;
6517;SDS011;3292;48.944;9.240;2023-08-01T08:30:31;4.70;;;3.47;;
6517;SDS011;3292;48.944;9.240;2023-08-01T08:32:58;3.50;;;3.20;;
6517;SDS011;3292;48.944;9.240;2023-08-01T08:35:29;3.43;;;2.90;;
6517;SDS011;3292;48.944;9.240;2023-08-01T08:37:57;3.23;;;3.00;;
6517;SDS011;3292;48.944;9.240;2023-08-01T08:40:24;3.40;;;2.60;;
6517;SDS011;3292;48.944;9.240;2023-08-01T08:42:52;3.37;;;2.80;;
6517;SDS011;3292;48.944;9.240;2023-08-01T08:45:19;2.93;;;2.47;;
6517;SDS011;3292;48.944;9.240;2023-08-01T08:47:49;2.87;;;2.50;;
6517;SDS011;3292;48.944;9.240;2023-08-01T08:50:19;3.50;;;2.60;;
6517;SDS011;3292;48.944;9.240;2023-08-01T08:52:46;5.03;;;3.17;;
6517;SDS011;3292;48.944;9.240;2023-08-01T08:55:14;3.30;;;2.50;;
6517;SDS011;3292;48.944;9.240;2023-08-01T08:57:41;3.80;;;3.10;;
6517;SDS011;3292;48.944;9.240;2023-08-01T09:00:10;3.33;;;2.63;;
6517;SDS011;3292;48.944;9.240;2023-08-01T09:02:37;2.87;;;2.47;;
6517;SDS011;3292;48.944;9.240;2023-08-01T09:05:06;4.20;;;2.97;;
6517;SDS011;3292;48.944;9.240;2023-08-01T09:07:33;2.67;;;2.47;;
6517;SDS011;3292;48.944;9.240;2023-08-01T09:10:05;3.30;;;2.57;;
6517;SDS011;3292;48.944;9.240;2023-08-01T09:12:33;2.27;;;2.10;;
6517;SDS011;3292;48.944;9.240;2023-08-01T09:15:01;2.50;;;2.30;;
6517;SDS011;3292;48.944;9.240;2023-08-01T09:17:28;3.30;;;2.43;;
6517;SDS011;3292;48.944;9.240;2023-08-01T09:19:55;2.80;;;2.60;;
6517;SDS011;3292;48.944;9.240;2023-08-01T09:22:30;2.93;;;2.53;;
6517;SDS011;3292;48.944;9.240;2023-08-01T09:25:07;3.43;;;2.60;;
6517;SDS011;3292;48.944;9.240;2023-08-01T09:27:34;3.07;;;2.50;;
6517;SDS011;3292;48.944;9.240;2023-08-01T09:30:04;3.10;;;2.50;;
6517;SDS011;3292;48.944;9.240;2023-08-01T09:32:33;2.67;;;2.20;;
6517;SDS011;3292;48.944;9.240;2023-08-01T09:34:59;2.20;;;2.00;;
6517;SDS011;3292;48.944;9.240;2023-08-01T09:37:26;3.87;;;2.80;;
6517;SDS011;3292;48.944;9.240;2023-08-01T09:40:04;3.30;;;2.67;;
6517;SDS011;3292;48.944;9.240;2023-08-01T09:42:37;2.60;;;2.40;;
6517;SDS011;3292;48.944;9.240;2023-08-01T09:45:06;3.10;;;2.80;;
6517;SDS011;3292;48.944;9.240;2023-08-01T09:47:37;3.03;;;2.73;;
6517;SDS011;3292;48.944;9.240;2023-08-01T09:50:04;3.07;;;2.87;;
6517;SDS011;3292;48.944;9.240;2023-08-01T09:52:32;3.80;;;2.93;;
6517;SDS011;3292;48.944;9.240;2023-08-01T09:55:01;2.77;;;2.50;;
6517;SDS011;3292;48.944;9.240;2023-08-01T09:57:28;2.77;;;2.57;;
6517;SDS011;3292;48.944;9.240;2023-08-01T09:59:56;3.80;;;2.90;;
6517;SDS011;3292;48.944;9.240;2023-08-01T10:02:24;2.40;;;2.13;;
6517;SDS011;3292;48.944;9.240;2023-08-01T10:04:52;2.50;;;2.30;;
6517;SDS011;3292;48.944;9.240;2023-08-01T10:07:23;3.17;;;2.67;;
6517;SDS011;3292;48.944;9.240;2023-08-01T10:09:51;2.23;;;1.83;;
6517;SDS011;3292;48.944;9.240;2023-08-01T10:12:22;2.30;;;2.03;;
6517;SDS011;3292;48.944;9.240;2023-08-01T10:14:50;1.80;;;1.60;;
6517;SDS011;3292;48.944;9.240;2023-08-01T10:17:18;1.93;;;1.50;;
6517;SDS011;3292;48.944;9.240;2023-08-01T10:19:47;2.87;;;1.80;;
6517;SDS011;3292;48.944;9.240;2023-08-01T10:22:15;1.80;;;1.47;;
6517;SDS011;3292;48.944;9.240;2023-08-01T10:24:43;1.77;;;1.60;;
6517;SDS011;3292;48.944;9.240;2023-08-01T10:27:11;2.03;;;1.80;;
6517;SDS011;3292;48.944;9.240;2023-08-01T10:29:41;2.70;;;1.63;;
6517;SDS011;3292;48.944;9.240;2023-08-01T10:32:09;1.87;;;1.60;;
6517;SDS011;3292;48.944;9.240;2023-08-01T10:34:36;1.63;;;1.30;;
6517;SDS011;3292;48.944;9.240;2023-08-01T10:37:03;2.17;;;1.40;;
6517;SDS011;3292;48.944;9.240;2023-08-01T10:39:30;1.40;;;1.30;;
6517;SDS011;3292;48.944;9.240;2023-08-01T10:41:57;2.77;;;1.40;;
6517;SDS011;3292;48.944;9.240;2023-08-01T10:44:26;1.40;;;1.30;;
6517;SDS011;3292;48.944;9.240;2023-08-01T10:46:58;1.27;;;1.17;;
6517;SDS011;3292;48.944;9.240;2023-08-01T10:49:33;2.17;;;1.40;;
6517;SDS011;3292;48.944;9.240;2023-08-01T10:52:02;2.17;;;1.50;;
6517;SDS011;3292;48.944;9.240;2023-08-01T10:54:29;1.53;;;1.40;;
6517;SDS011;3292;48.944;9.240;2023-08-01T10:56:59;3.30;;;1.40;;
6517;SDS011;3292;48.944;9.240;2023-08-01T10:59:27;1.70;;;1.60;;
6517;SDS011;3292;48.944;9.240;2023-08-01T11:01:59;1.47;;;1.37;;
6517;SDS011;3292;48.944;9.240;2023-08-01T11:04:27;1.60;;;1.50;;
6517;SDS011;3292;48.944;9.240;2023-08-01T11:06:54;1.80;;;1.70;;
6517;SDS011;3292;48.944;9.240;2023-08-01T11:09:22;2.23;;;1.80;;
6517;SDS011;3292;48.944;9.240;2023-08-01T11:11:51;2.57;;;1.80;;
6517;SDS011;3292;48.944;9.240;2023-08-01T11:14:19;2.13;;;1.77;;
6517;SDS011;3292;48.944;9.240;2023-08-01T11:16:47;2.83;;;1.77;;
6517;SDS011;3292;48.944;9.240;2023-08-01T11:19:20;1.60;;;1.50;;
6517;SDS011;3292;48.944;9.240;2023-08-01T11:21:49;1.60;;;1.50;;
6517;SDS011;3292;48.944;9.240;2023-08-01T11:24:17;1.73;;;1.63;;
6517;SDS011;3292;48.944;9.240;2023-08-01T11:26:46;1.80;;;1.53;;
6517;SDS011;3292;48.944;9.240;2023-08-01T11:29:14;2.37;;;1.53;;
6517;SDS011;3292;48.944;9.240;2023-08-01T11:31:51;1.93;;;1.53;;
6517;SDS011;3292;48.944;9.240;2023-08-01T11:34:20;1.77;;;1.60;;
6517;SDS011;3292;48.944;9.240;2023-08-01T11:36:47;1.70;;;1.50;;
6517;SDS011;3292;48.944;9.240;2023-08-01T11:39:15;1.77;;;1.63;;
6517;SDS011;3292;48.944;9.240;2023-08-01T11:41:42;1.77;;;1.50;;
6517;SDS011;3292;48.944;9.240;2023-08-01T11:44:10;2.30;;;1.40;;
6517;SDS011;3292;48.944;9.240;2023-08-01T11:46:37;1.60;;;1.50;;
6517;SDS011;3292;48.944;9.240;2023-08-01T11:49:06;2.33;;;1.60;;
6517;SDS011;3292;48.944;9.240;2023-08-01T11:51:39;1.80;;;1.60;;
6517;SDS011;3292;48.944;9.240;2023-08-01T11:54:06;1.70;;;1.53;;
6517;SDS011;3292;48.944;9.240;2023-08-01T11:56:36;1.97;;;1.60;;
6517;SDS011;3292;48.944;9.240;2023-08-01T11:59:09;2.67;;;1.50;;
6517;SDS011;3292;48.944;9.240;2023-08-01T12:01:39;1.50;;;1.40;;
6517;SDS011;3292;48.944;9.240;2023-08-01T12:04:06;1.70;;;1.60;;
6517;SDS011;3292;48.944;9.240;2023-08-01T12:06:33;2.10;;;1.30;;
6517;SDS011;3292;48.944;9.240;2023-08-01T12:09:10;3.03;;;1.90;;
6517;SDS011;3292;48.944;9.240;2023-08-01T12:11:38;2.63;;;1.70;;
6517;SDS011;3292;48.944;9.240;2023-08-01T12:14:06;2.30;;;1.70;;
6517;SDS011;3292;48.944;9.240;2023-08-01T12:16:35;2.70;;;1.87;;
6517;SDS011;3292;48.944;9.240;2023-08-01T12:19:02;2.00;;;1.80;;
6517;SDS011;3292;48.944;9.240;2023-08-01T12:21:29;4.20;;;1.70;;
6517;SDS011;3292;48.944;9.240;2023-08-01T12:23:57;2.20;;;1.60;;
6517;SDS011;3292;48.944;9.240;2023-08-01T12:26:25;2.10;;;1.53;;
6517;SDS011;3292;48.944;9.240;2023-08-01T12:28:52;3.70;;;1.50;;
6517;SDS011;3292;48.944;9.240;2023-08-01T12:31:19;2.40;;;1.90;;
6517;SDS011;3292;48.944;9.240;2023-08-01T12:33:48;1.80;;;1.70;;
6517;SDS011;3292;48.944;9.240;2023-08-01T12:36:15;3.57;;;1.60;;
6517;SDS011;3292;48.944;9.240;2023-08-01T12:38:42;3.40;;;2.00;;
6517;SDS011;3292;48.944;9.240;2023-08-01T12:41:09;2.30;;;1.90;;
6517;SDS011;3292;48.944;9.240;2023-08-01T12:43:37;2.87;;;2.00;;
6517;SDS011;3292;48.944;9.240;2023-08-01T12:46:04;7.00;;;1.73;;
6517;SDS011;3292;48.944;9.240;2023-08-01T12:48:30;2.57;;;1.80;;
6517;SDS011;3292;48.944;9.240;2023-08-01T12:50:57;2.10;;;1.90;;
6517;SDS011;3292;48.944;9.240;2023-08-01T12:53:24;2.67;;;1.77;;
6517;SDS011;3292;48.944;9.240;2023-08-01T12:55:51;2.57;;;1.90;;
6517;SDS011;3292;48.944;9.240;2023-08-01T12:58:21;2.60;;;1.70;;
6517;SDS011;3292;48.944;9.240;2023-08-01T13:00:49;2.60;;;1.77;;
6517;SDS011;3292;48.944;9.240;2023-08-01T13:03:16;2.63;;;1.77;;
6517;SDS011;3292;48.944;9.240;2023-08-01T13:05:42;4.03;;;1.80;;
6517;SDS011;3292;48.944;9.240;2023-08-01T13:08:09;2.60;;;1.90;;
6517;SDS011;3292;48.944;9.240;2023-08-01T13:10:37;2.40;;;1.60;;
6517;SDS011;3292;48.944;9.240;2023-08-01T13:13:04;3.60;;;1.80;;
6517;SDS011;3292;48.944;9.240;2023-08-01T13:15:31;3.83;;;2.10;;
6517;SDS011;3292;48.944;9.240;2023-08-01T13:17:59;2.58;;;1.88;;
6517;SDS011;3292;48.944;9.240;2023-08-01T13:20:26;3.17;;;2.00;;
6517;SDS011;3292;48.944;9.240;2023-08-01T13:22:53;3.55;;;1.90;;
6517;SDS011;3292;48.944;9.240;2023-08-01T13:25:20;1.97;;;1.67;;
6517;SDS011;3292;48.944;9.240;2023-08-01T13:27:47;1.70;;;1.60;;
6517;SDS011;3292;48.944;9.240;2023-08-01T13:30:14;2.22;;;1.88;;
6517;SDS011;3292;48.944;9.240;2023-08-01T13:32:43;2.42;;;1.70;;
6517;SDS011;3292;48.944;9.240;2023-08-01T13:35:11;2.95;;;1.83;;
6517;SDS011;3292;48.944;9.240;2023-08-01T13:37:38;4.03;;;1.92;;
6517;SDS011;3292;48.944;9.240;2023-08-01T13:40:05;9.82;;;2.17;;
6517;SDS011;3292;48.944;9.240;2023-08-01T13:42:33;2.10;;;1.90;;
6517;SDS011;3292;48.944;9.240;2023-08-01T13:45:00;6.10;;;1.98;;
6517;SDS011;3292;48.944;9.240;2023-08-01T13:47:26;2.30;;;1.90;;
6517;SDS011;3292;48.944;9.240;2023-08-01T13:49:53;4.53;;;1.95;;
6517;SDS011;3292;48.944;9.240;2023-08-01T13:52:21;8.15;;;1.90;;
6517;SDS011;3292;48.944;9.240;2023-08-01T13:54:48;2.95;;;1.80;;
6517;SDS011;3292;48.944;9.240;2023-08-01T13:57:15;2.00;;;1.50;;
6517;SDS011;3292;48.944;9.240;2023-08-01T13:59:42;2.33;;;1.70;;
6517;SDS011;3292;48.944;9.240;2023-08-01T14:02:08;1.63;;;1.50;;
6517;SDS011;3292;48.944;9.240;2023-08-01T14:04:36;3.17;;;1.85;;
6517;SDS011;3292;48.944;9.240;2023-08-01T14:07:03;5.35;;;1.85;;
6517;SDS011;3292;48.944;9.240;2023-08-01T14:09:31;2.55;;;1.60;;
6517;SDS011;3292;48.944;9.240;2023-08-01T14:12:01;2.30;;;1.75;;
6517;SDS011;3292;48.944;9.240;2023-08-01T14:14:27;3.42;;;2.00;;
6517;SDS011;3292;48.944;9.240;2023-08-01T14:16:54;2.00;;;1.80;;
6517;SDS011;3292;48.944;9.240;2023-08-01T14:19:21;2.30;;;1.80;;
6517;SDS011;3292;48.944;9.240;2023-08-01T14:21:48;2.28;;;1.80;;
6517;SDS011;3292;48.944;9.240;2023-08-01T14:24:15;2.17;;;1.70;;
6517;SDS011;3292;48.944;9.240;2023-08-01T14:26:43;3.00;;;1.77;;
6517;SDS011;3292;48.944;9.240;2023-08-01T14:29:10;3.25;;;1.88;;
6517;SDS011;3292;48.944;9.240;2023-08-01T14:31:39;4.55;;;1.80;;
6517;SDS011;3292;48.944;9.240;2023-08-01T14:34:05;2.08;;;1.70;;
6517;SDS011;3292;48.944;9.240;2023-08-01T14:36:32;4.38;;;1.92;;
6517;SDS011;3292;48.944;9.240;2023-08-01T14:38:59;2.20;;;1.67;;
6517;SDS011;3292;48.944;9.240;2023-08-01T14:41:26;2.90;;;2.05;;
6517;SDS011;3292;48.944;9.240;2023-08-01T14:43:54;3.67;;;1.67;;
6517;SDS011;3292;48.944;9.240;2023-08-01T14:46:21;2.78;;;1.80;;
6517;SDS011;3292;48.944;9.240;2023-08-01T14:48:47;2.15;;;1.80;;
6517;SDS011;3292;48.944;9.240;2023-08-01T14:51:14;2.53;;;1.83;;
6517;SDS011;3292;48.944;9.240;2023-08-01T14:53:41;1.98;;;1.77;;
6517;SDS011;3292;48.944;9.240;2023-08-01T14:56:08;2.17;;;1.70;;
6517;SDS011;3292;48.944;9.240;2023-08-01T14:58:36;2.08;;;1.83;;
6517;SDS011;3292;48.944;9.240;2023-08-01T15:01:09;3.90;;;1.90;;
6517;SDS011;3292;48.944;9.240;2023-08-01T15:03:38;2.17;;;1.67;;
6517;SDS011;3292;48.944;9.240;2023-08-01T15:06:05;4.43;;;1.92;;
6517;SDS011;3292;48.944;9.240;2023-08-01T15:08:32;2.13;;;1.92;;
6517;SDS011;3292;48.944;9.240;2023-08-01T15:11:02;3.63;;;2.00;;
6517;SDS011;3292;48.944;9.240;2023-08-01T15:13:30;2.60;;;2.03;;
6517;SDS011;3292;48.944;9.240;2023-08-01T15:15:56;2.25;;;1.65;;